Time;durP1;ratioP1;P1;durP2;ratioP2;P2;SDS_P1;SDS_P2;PMS_P1;PMS_P2;Temp;Humidity;BMP_temperature;BMP_pressure;BME280_temperature;BME280_humidity;BME280_pressure;Samples;Min_cycle;Max_cycle;Signal;HPM_P1;HPM_P2
2022/01/21 00:00:26;;;;;;;35.63;10.00;;;;;;;;;;4981220;28;20109;-58
2022/01/21 00:02:51;;;;;;;43.78;10.85;;;;;;;;;;5004201;28;20053;-58
2022/01/21 00:05:18;;;;;;;38.42;10.23;;;;;;;;;;4988050;28;20026;-58
2022/01/21 00:07:45;;;;;;;38.80;10.10;;;;;;;;;;4989833;28;20706;-57
2022/01/21 00:10:11;;;;;;;40.85;12.30;;;;;;;;;;4983076;28;20030;-57
2022/01/21 00:12:37;;;;;;;33.85;9.57;;;;;;;;;;5001099;28;20449;-57
2022/01/21 00:15:05;;;;;;;34.92;9.15;;;;;;;;;;5008944;28;20040;-57
2022/01/21 00:17:31;;;;;;;35.30;10.23;;;;;;;;;;5011410;28;20540;-57
2022/01/21 00:30:52;;;;;;;38.05;7.72;;;;;;;;;;5005855;28;20145;-57
2022/01/21 00:33:18;;;;;;;26.48;8.38;;;;;;;;;;5007261;28;20101;-58
2022/01/21 00:35:43;;;;;;;30.83;8.02;;;;;;;;;;5006236;28;20038;-57
2022/01/21 00:38:09;;;;;;;35.85;8.43;;;;;;;;;;5005645;28;20061;-58
2022/01/21 00:40:35;;;;;;;26.67;8.98;;;;;;;;;;5007643;28;20432;-58
2022/01/21 00:43:23;;;;;;;28.23;8.35;;;;;;;;;;5003715;28;20025;-58
2022/01/21 00:45:49;;;;;;;29.70;7.80;;;;;;;;;;5009766;28;20042;-58
2022/01/21 00:48:15;;;;;;;33.58;8.75;;;;;;;;;;5004701;28;20069;-58
2022/01/21 00:50:41;;;;;;;26.00;7.55;;;;;;;;;;5006580;28;20045;-58
2022/01/21 00:53:08;;;;;;;33.40;8.48;;;;;;;;;;5002277;28;20049;-58
2022/01/21 00:55:33;;;;;;;33.35;8.18;;;;;;;;;;5004653;28;20033;-57
2022/01/21 00:57:59;;;;;;;24.30;6.68;;;;;;;;;;5007327;28;20108;-57
2022/01/21 01:00:24;;;;;;;34.70;7.45;;;;;;;;;;5004921;28;20041;-57
2022/01/21 01:02:50;;;;;;;32.72;7.82;;;;;;;;;;5005740;28;20034;-57
2022/01/21 01:05:15;;;;;;;20.23;6.07;;;;;;;;;;5009051;28;20107;-57
2022/01/21 01:07:41;;;;;;;22.27;6.78;;;;;;;;;;5007718;28;20034;-57
2022/01/21 01:10:12;;;;;;;23.23;5.93;;;;;;;;;;4999056;28;20041;-58
2022/01/21 01:20:35;;;;;;;29.20;5.40;;;;;;;;;;5003064;28;20447;-57
2022/01/21 01:23:09;;;;;;;22.40;6.40;;;;;;;;;;5002332;28;20029;-58
2022/01/21 01:28:19;;;;;;;22.80;6.28;;;;;;;;;;5004043;28;20507;-57
2022/01/21 01:30:44;;;;;;;22.23;6.38;;;;;;;;;;5005212;28;20030;-57
2022/01/21 01:33:13;;;;;;;17.63;6.57;;;;;;;;;;5000121;28;20034;-57
2022/01/21 01:35:39;;;;;;;24.88;6.28;;;;;;;;;;5005829;28;20543;-57
2022/01/21 01:51:23;;;;;;;31.52;6.72;;;;;;;;;;5002988;28;20395;-57
2022/01/21 01:54:03;;;;;;;23.80;5.97;;;;;;;;;;5003745;28;20456;-57
2022/01/21 01:56:33;;;;;;;32.95;6.72;;;;;;;;;;5001611;28;20034;-55
2022/01/21 01:58:59;;;;;;;19.88;5.45;;;;;;;;;;4999803;28;20029;-57
2022/01/21 02:01:24;;;;;;;24.80;5.43;;;;;;;;;;4985376;28;20052;-57
2022/01/21 02:03:49;;;;;;;24.98;6.28;;;;;;;;;;5004661;28;20033;-57
2022/01/21 02:06:15;;;;;;;21.63;5.65;;;;;;;;;;4997284;28;20456;-57
2022/01/21 02:08:41;;;;;;;18.83;5.72;;;;;;;;;;4998240;28;20088;-57
2022/01/21 02:11:07;;;;;;;19.25;5.93;;;;;;;;;;5000198;28;20473;-57
2022/01/21 02:13:42;;;;;;;36.40;5.68;;;;;;;;;;5001892;28;20038;-57
2022/01/21 02:21:31;;;;;;;24.55;5.00;;;;;;;;;;5001567;28;20037;-57
2022/01/21 02:23:59;;;;;;;19.17;5.50;;;;;;;;;;4999173;28;20282;-57
2022/01/21 02:26:25;;;;;;;34.90;5.57;;;;;;;;;;4999925;28;20030;-58
2022/01/21 02:28:52;;;;;;;26.17;5.40;;;;;;;;;;5003132;28;20036;-58
2022/01/21 02:31:18;;;;;;;16.77;4.20;;;;;;;;;;4984995;28;20413;-58
2022/01/21 02:33:43;;;;;;;19.13;4.88;;;;;;;;;;4988362;28;20100;-58
2022/01/21 02:36:09;;;;;;;22.27;4.80;;;;;;;;;;5003466;28;20037;-57
2022/01/21 02:38:34;;;;;;;19.90;4.78;;;;;;;;;;4988324;28;20087;-57
2022/01/21 02:41:00;;;;;;;14.73;3.97;;;;;;;;;;5003836;28;20260;-57
2022/01/21 02:43:26;;;;;;;13.60;3.22;;;;;;;;;;5003764;28;20476;-57
2022/01/21 02:45:52;;;;;;;16.00;3.65;;;;;;;;;;5002630;28;20054;-57
2022/01/21 02:48:19;;;;;;;20.15;4.47;;;;;;;;;;4999209;28;20030;-57
2022/01/21 02:50:45;;;;;;;23.48;4.47;;;;;;;;;;4982860;28;20058;-57
2022/01/21 02:53:39;;;;;;;25.42;3.67;;;;;;;;;;5001480;28;20034;-57
2022/01/21 02:56:05;;;;;;;19.33;3.10;;;;;;;;;;5001658;28;20113;-57
2022/01/21 02:58:32;;;;;;;15.68;3.70;;;;;;;;;;5000814;28;20120;-57
2022/01/21 03:00:57;;;;;;;20.15;3.72;;;;;;;;;;4999385;28;20129;-57
2022/01/21 03:03:23;;;;;;;20.05;3.83;;;;;;;;;;5004794;28;20495;-57
2022/01/21 03:05:48;;;;;;;19.52;2.60;;;;;;;;;;5001044;28;20026;-58
2022/01/21 03:08:15;;;;;;;25.25;4.18;;;;;;;;;;4999376;28;20037;-57
2022/01/21 03:10:40;;;;;;;28.25;3.97;;;;;;;;;;4998515;28;20072;-57
2022/01/21 03:13:06;;;;;;;11.50;3.30;;;;;;;;;;5001083;28;20129;-57
2022/01/21 03:15:31;;;;;;;14.30;3.83;;;;;;;;;;5002538;28;20052;-57
2022/01/21 03:17:57;;;;;;;21.63;4.20;;;;;;;;;;4996488;28;20040;-57
2022/01/21 03:20:23;;;;;;;26.63;3.30;;;;;;;;;;4979558;28;20493;-57
2022/01/21 03:22:48;;;;;;;22.23;3.60;;;;;;;;;;4999245;28;20018;-57
2022/01/21 03:25:14;;;;;;;21.40;3.75;;;;;;;;;;5000365;28;20558;-57
2022/01/21 03:27:39;;;;;;;21.35;3.85;;;;;;;;;;4998762;28;20044;-57
2022/01/21 03:30:07;;;;;;;14.38;2.95;;;;;;;;;;5004899;28;20036;-57
2022/01/21 03:32:33;;;;;;;14.40;3.42;;;;;;;;;;5001082;28;20041;-56
2022/01/21 03:34:59;;;;;;;18.58;3.25;;;;;;;;;;5002899;28;20026;-57
2022/01/21 03:37:25;;;;;;;16.10;3.33;;;;;;;;;;5002096;28;20029;-57
2022/01/21 03:39:51;;;;;;;15.35;2.83;;;;;;;;;;5004750;28;20409;-58
2022/01/21 03:42:16;;;;;;;22.15;3.53;;;;;;;;;;5002913;28;20058;-57
2022/01/21 03:44:42;;;;;;;25.08;3.50;;;;;;;;;;5005605;28;20057;-58
2022/01/21 03:47:08;;;;;;;17.90;3.58;;;;;;;;;;5000231;28;20531;-58
2022/01/21 03:49:38;;;;;;;15.90;3.22;;;;;;;;;;4999320;28;20042;-58
2022/01/21 03:52:06;;;;;;;14.98;2.63;;;;;;;;;;4996835;28;20035;-57
2022/01/21 03:54:32;;;;;;;33.05;3.47;;;;;;;;;;4980250;28;20022;-58
2022/01/21 03:56:59;;;;;;;19.80;3.20;;;;;;;;;;4998475;28;20057;-57
2022/01/21 03:59:25;;;;;;;26.33;2.97;;;;;;;;;;4999338;28;20032;-57
2022/01/21 04:01:50;;;;;;;17.65;2.88;;;;;;;;;;5000216;28;20422;-57
2022/01/21 04:04:16;;;;;;;10.35;2.35;;;;;;;;;;4998870;28;20037;-58
2022/01/21 04:06:41;;;;;;;15.02;3.03;;;;;;;;;;5000140;28;20037;-57
2022/01/21 04:09:07;;;;;;;10.18;2.75;;;;;;;;;;4998673;28;20446;-56
2022/01/21 04:11:32;;;;;;;13.18;2.58;;;;;;;;;;4998400;28;20455;-57
2022/01/21 04:13:58;;;;;;;20.05;2.60;;;;;;;;;;5001289;28;20030;-58
2022/01/21 04:16:23;;;;;;;11.85;3.08;;;;;;;;;;4984876;28;20057;-58
2022/01/21 04:18:49;;;;;;;26.58;3.78;;;;;;;;;;5001874;28;20034;-58
2022/01/21 04:21:14;;;;;;;19.65;3.60;;;;;;;;;;5000517;28;20137;-58
2022/01/21 04:23:40;;;;;;;16.92;2.90;;;;;;;;;;5001727;28;20072;-58
2022/01/21 04:26:05;;;;;;;16.95;4.15;;;;;;;;;;4999368;28;20065;-58
2022/01/21 04:28:31;;;;;;;23.95;4.30;;;;;;;;;;4998582;28;20030;-58
2022/01/21 04:30:58;;;;;;;19.65;3.97;;;;;;;;;;5000813;28;20037;-57
2022/01/21 04:33:23;;;;;;;22.30;5.05;;;;;;;;;;4984235;28;20396;-58
2022/01/21 04:35:49;;;;;;;18.85;4.40;;;;;;;;;;5003589;28;20022;-58
2022/01/21 04:38:18;;;;;;;34.85;4.63;;;;;;;;;;4998239;28;20033;-57
2022/01/21 04:40:51;;;;;;;17.70;4.53;;;;;;;;;;4999965;28;20052;-57
2022/01/21 04:48:45;;;;;;;20.50;4.25;;;;;;;;;;4999955;28;20057;-57
2022/01/21 04:51:14;;;;;;;16.88;4.32;;;;;;;;;;4999330;28;20488;-58
2022/01/21 04:53:42;;;;;;;20.65;5.65;;;;;;;;;;5004361;28;20030;-58
2022/01/21 04:56:08;;;;;;;20.33;5.30;;;;;;;;;;5000574;28;20324;-57
2022/01/21 04:58:33;;;;;;;16.30;4.93;;;;;;;;;;5004192;28;20173;-58
2022/01/21 05:01:03;;;;;;;20.77;4.95;;;;;;;;;;5003906;28;20022;-58
2022/01/21 05:03:29;;;;;;;30.90;5.82;;;;;;;;;;4987801;28;20022;-57
2022/01/21 05:05:55;;;;;;;20.52;5.22;;;;;;;;;;4980991;28;20091;-58
2022/01/21 05:08:38;;;;;;;23.83;5.97;;;;;;;;;;5003646;28;20049;-57
2022/01/21 05:11:04;;;;;;;20.65;4.93;;;;;;;;;;5003806;28;20068;-57
2022/01/21 05:13:37;;;;;;;21.90;5.97;;;;;;;;;;5001610;28;20467;-58
2022/01/21 05:16:28;;;;;;;32.72;6.53;;;;;;;;;;5002347;28;20443;-58
2022/01/21 05:18:51;;;;;;;23.50;5.85;;;;;;;;;;5001225;28;20053;-58
2022/01/21 05:21:17;;;;;;;20.85;5.72;;;;;;;;;;5003146;28;20521;-58
2022/01/21 05:23:42;;;;;;;21.75;5.57;;;;;;;;;;5004825;28;20030;-58
2022/01/21 05:26:08;;;;;;;21.23;7.15;;;;;;;;;;5000162;28;20034;-57
2022/01/21 05:28:33;;;;;;;28.17;7.00;;;;;;;;;;5004924;28;20026;-57
2022/01/21 05:30:59;;;;;;;22.67;6.07;;;;;;;;;;4999465;28;20482;-57
2022/01/21 05:33:24;;;;;;;31.13;6.50;;;;;;;;;;4984738;28;20103;-57
2022/01/21 05:35:50;;;;;;;19.85;6.15;;;;;;;;;;5004298;28;20038;-57
2022/01/21 05:38:15;;;;;;;24.75;6.57;;;;;;;;;;5005325;28;20038;-57
2022/01/21 05:40:42;;;;;;;25.30;6.32;;;;;;;;;;5004913;28;20038;-57
2022/01/21 05:43:08;;;;;;;29.70;7.65;;;;;;;;;;5002710;28;20042;-57
2022/01/21 05:48:18;;;;;;;23.30;7.03;;;;;;;;;;5001923;28;20041;-58
2022/01/21 05:50:44;;;;;;;28.05;6.88;;;;;;;;;;4968302;28;20401;-59
2022/01/21 05:53:11;;;;;;;26.80;6.78;;;;;;;;;;5004429;28;20042;-58
2022/01/21 05:55:40;;;;;;;32.35;7.47;;;;;;;;;;5001221;28;20034;-58
2022/01/21 05:58:07;;;;;;;16.00;6.60;;;;;;;;;;4998919;28;20408;-58
2022/01/21 06:00:33;;;;;;;23.63;6.63;;;;;;;;;;4983047;28;20225;-58
2022/01/21 06:02:58;;;;;;;24.40;7.18;;;;;;;;;;5004722;28;20194;-58
2022/01/21 06:05:24;;;;;;;21.20;6.53;;;;;;;;;;5004210;28;20482;-59
2022/01/21 06:07:49;;;;;;;20.83;7.25;;;;;;;;;;5003863;28;20083;-59
2022/01/21 06:10:15;;;;;;;19.30;5.32;;;;;;;;;;4998219;28;20037;-59
2022/01/21 06:12:40;;;;;;;37.10;6.60;;;;;;;;;;4999122;28;20097;-58
2022/01/21 06:15:06;;;;;;;23.08;7.22;;;;;;;;;;5002883;28;20409;-59
2022/01/21 06:17:32;;;;;;;19.58;6.68;;;;;;;;;;5007268;28;20101;-58
2022/01/21 06:19:57;;;;;;;21.75;6.32;;;;;;;;;;4982484;28;20414;-59
2022/01/21 06:22:23;;;;;;;17.23;6.18;;;;;;;;;;5002426;28;20483;-58
2022/01/21 06:24:48;;;;;;;21.55;6.25;;;;;;;;;;5000802;28;20025;-58
2022/01/21 06:27:15;;;;;;;23.52;7.15;;;;;;;;;;5005634;28;20037;-59
2022/01/21 06:29:41;;;;;;;22.85;6.47;;;;;;;;;;4999196;28;20049;-59
2022/01/21 06:32:07;;;;;;;20.65;6.47;;;;;;;;;;4997338;28;20489;-59
2022/01/21 06:34:32;;;;;;;23.13;6.65;;;;;;;;;;5002417;28;20076;-59
2022/01/21 06:36:57;;;;;;;28.50;7.90;;;;;;;;;;5001678;28;20121;-58
2022/01/21 06:39:23;;;;;;;17.25;6.13;;;;;;;;;;4998268;28;20273;-58
2022/01/21 06:41:49;;;;;;;20.00;6.85;;;;;;;;;;5004008;28;20168;-59
2022/01/21 06:44:15;;;;;;;21.15;6.57;;;;;;;;;;5003289;28;20033;-58
2022/01/21 06:46:41;;;;;;;13.45;5.72;;;;;;;;;;5000602;28;20040;-58
2022/01/21 06:49:07;;;;;;;21.20;6.63;;;;;;;;;;5002271;28;20068;-58
2022/01/21 06:51:32;;;;;;;21.42;6.03;;;;;;;;;;4986423;28;20513;-59
2022/01/21 06:53:58;;;;;;;17.50;6.65;;;;;;;;;;5001196;28;20033;-59
2022/01/21 06:56:23;;;;;;;21.85;6.53;;;;;;;;;;5004582;28;20053;-58
2022/01/21 06:58:49;;;;;;;17.33;6.43;;;;;;;;;;5002546;28;20038;-58
2022/01/21 07:01:14;;;;;;;21.67;6.25;;;;;;;;;;5002622;28;20034;-58
2022/01/21 07:03:39;;;;;;;20.15;5.95;;;;;;;;;;5005088;28;20411;-58
2022/01/21 07:06:05;;;;;;;19.70;6.93;;;;;;;;;;5000887;28;20045;-58
2022/01/21 07:08:34;;;;;;;22.48;5.60;;;;;;;;;;4997393;28;20481;-57
2022/01/21 07:10:59;;;;;;;20.05;6.13;;;;;;;;;;4998540;28;20037;-58
2022/01/21 07:13:25;;;;;;;19.90;6.10;;;;;;;;;;4987239;28;20092;-58
2022/01/21 07:15:50;;;;;;;23.40;6.57;;;;;;;;;;4999559;28;20046;-58
2022/01/21 07:18:16;;;;;;;16.55;5.22;;;;;;;;;;5001032;28;20527;-58
2022/01/21 07:20:42;;;;;;;16.98;5.75;;;;;;;;;;4980199;28;20038;-58
2022/01/21 07:23:08;;;;;;;17.17;6.25;;;;;;;;;;5002367;28;21579;-58
2022/01/21 07:25:34;;;;;;;19.92;6.40;;;;;;;;;;4999960;28;20485;-58
2022/01/21 07:28:00;;;;;;;15.55;5.47;;;;;;;;;;5001412;28;20129;-58
2022/01/21 07:30:25;;;;;;;20.42;5.75;;;;;;;;;;5002291;28;20517;-58
2022/01/21 07:32:51;;;;;;;22.52;5.75;;;;;;;;;;5003439;28;20425;-58
2022/01/21 07:35:17;;;;;;;18.05;5.25;;;;;;;;;;5000215;28;20108;-58
2022/01/21 07:37:42;;;;;;;19.42;6.15;;;;;;;;;;4999354;28;20038;-58
2022/01/21 07:40:09;;;;;;;16.05;6.93;;;;;;;;;;5000799;28;20084;-58
2022/01/21 07:42:34;;;;;;;18.65;6.13;;;;;;;;;;5002572;28;20017;-58
2022/01/21 07:45:00;;;;;;;24.75;6.75;;;;;;;;;;5000111;28;20417;-58
2022/01/21 07:47:25;;;;;;;25.02;6.82;;;;;;;;;;4993906;28;20045;-57
2022/01/21 07:49:51;;;;;;;28.40;7.10;;;;;;;;;;4998590;28;20046;-58
2022/01/21 07:52:17;;;;;;;12.25;5.93;;;;;;;;;;4999188;28;20034;-58
2022/01/21 07:54:43;;;;;;;16.23;5.22;;;;;;;;;;4996527;28;20060;-58
2022/01/21 07:57:10;;;;;;;20.52;5.15;;;;;;;;;;4998954;28;20080;-58
2022/01/21 07:59:35;;;;;;;19.10;6.00;;;;;;;;;;5002754;28;20535;-54
2022/01/21 08:02:01;;;;;;;14.15;5.20;;;;;;;;;;4984347;28;20057;-58
2022/01/21 08:04:27;;;;;;;17.17;4.38;;;;;;;;;;5001052;28;20084;-59
2022/01/21 08:06:53;;;;;;;27.58;5.40;;;;;;;;;;4999657;28;20030;-59
2022/01/21 08:09:23;;;;;;;15.57;5.22;;;;;;;;;;4994966;28;20125;-59
2022/01/21 08:11:53;;;;;;;16.13;5.30;;;;;;;;;;5000486;28;20046;-59
2022/01/21 08:14:19;;;;;;;14.23;4.80;;;;;;;;;;5002540;28;20201;-59
2022/01/21 08:16:45;;;;;;;21.50;5.70;;;;;;;;;;4997798;28;20029;-59
2022/01/21 08:19:11;;;;;;;16.40;5.00;;;;;;;;;;5002190;28;20382;-59
2022/01/21 08:21:36;;;;;;;14.63;5.28;;;;;;;;;;5001823;28;20248;-59
2022/01/21 08:24:03;;;;;;;15.98;4.10;;;;;;;;;;5003800;28;20056;-58
2022/01/21 08:26:29;;;;;;;18.08;4.47;;;;;;;;;;5003369;28;20053;-59
2022/01/21 08:28:56;;;;;;;12.40;5.35;;;;;;;;;;5001093;28;20563;-58
2022/01/21 08:31:22;;;;;;;16.65;5.05;;;;;;;;;;5000224;28;20046;-57
2022/01/21 08:33:48;;;;;;;23.92;4.47;;;;;;;;;;5004536;28;20105;-55
2022/01/21 08:36:14;;;;;;;13.07;4.03;;;;;;;;;;4980900;28;20091;-54
2022/01/21 08:38:39;;;;;;;13.45;3.70;;;;;;;;;;5004649;28;20587;-55
2022/01/21 08:41:06;;;;;;;9.80;3.63;;;;;;;;;;5003696;28;20392;-55
2022/01/21 08:43:31;;;;;;;7.07;3.13;;;;;;;;;;5000082;28;20516;-54
2022/01/21 08:45:57;;;;;;;13.43;3.45;;;;;;;;;;4986862;28;20069;-54
2022/01/21 08:48:23;;;;;;;11.35;3.05;;;;;;;;;;5007870;28;20034;-55
2022/01/21 08:50:49;;;;;;;11.05;3.17;;;;;;;;;;5005362;28;20514;-55
2022/01/21 08:55:58;;;;;;;9.30;3.95;;;;;;;;;;5003518;28;20348;-53
2022/01/21 08:58:25;;;;;;;10.20;3.50;;;;;;;;;;5003994;28;20312;-54
2022/01/21 09:00:51;;;;;;;9.35;3.65;;;;;;;;;;5002656;28;20117;-55
2022/01/21 09:03:16;;;;;;;10.27;3.75;;;;;;;;;;5002525;28;20113;-55
2022/01/21 09:05:48;;;;;;;9.27;4.03;;;;;;;;;;5004666;28;20046;-56
2022/01/21 09:08:23;;;;;;;19.88;4.70;;;;;;;;;;5002681;28;20091;-55
2022/01/21 09:10:49;;;;;;;10.68;3.28;;;;;;;;;;5002054;28;20226;-54
2022/01/21 09:13:14;;;;;;;7.95;3.13;;;;;;;;;;5001680;28;20058;-54
2022/01/21 09:15:40;;;;;;;10.00;3.65;;;;;;;;;;5001652;28;20037;-54
2022/01/21 09:18:06;;;;;;;8.48;3.22;;;;;;;;;;5003701;28;20080;-52
2022/01/21 09:20:33;;;;;;;8.60;2.70;;;;;;;;;;5002406;28;20049;-54
2022/01/21 09:22:59;;;;;;;14.30;3.10;;;;;;;;;;5000396;28;20485;-55
2022/01/21 09:25:25;;;;;;;17.25;3.42;;;;;;;;;;5003798;28;20030;-53
2022/01/21 09:27:50;;;;;;;9.73;3.58;;;;;;;;;;5004288;28;20504;-55
2022/01/21 09:30:17;;;;;;;13.85;3.60;;;;;;;;;;4998454;28;20029;-54
2022/01/21 09:32:43;;;;;;;7.97;2.70;;;;;;;;;;5003931;28;20038;-53
2022/01/21 09:35:10;;;;;;;10.48;3.33;;;;;;;;;;5002638;28;20048;-55
2022/01/21 09:37:36;;;;;;;8.52;3.65;;;;;;;;;;5005990;28;20041;-55
2022/01/21 09:40:04;;;;;;;11.23;3.38;;;;;;;;;;5006728;28;20044;-55
2022/01/21 09:42:33;;;;;;;15.65;3.50;;;;;;;;;;5002313;28;20030;-55
2022/01/21 09:44:58;;;;;;;10.57;3.08;;;;;;;;;;5000056;28;20392;-54
2022/01/21 09:47:25;;;;;;;12.68;4.00;;;;;;;;;;5001460;28;20029;-54
2022/01/21 09:49:52;;;;;;;9.25;3.53;;;;;;;;;;4998309;28;20052;-54
2022/01/21 09:52:21;;;;;;;10.82;3.85;;;;;;;;;;5001923;28;20559;-53
2022/01/21 09:54:48;;;;;;;8.82;2.97;;;;;;;;;;5003658;28;20491;-55
2022/01/21 09:57:23;;;;;;;11.65;3.10;;;;;;;;;;5001859;28;20034;-55
2022/01/21 09:59:50;;;;;;;15.43;4.00;;;;;;;;;;5007346;28;20030;-55
2022/01/21 10:02:20;;;;;;;9.75;3.40;;;;;;;;;;4999674;28;20061;-55
2022/01/21 10:04:49;;;;;;;9.73;2.72;;;;;;;;;;4998444;28;20091;-54
2022/01/21 10:07:18;;;;;;;14.90;3.53;;;;;;;;;;5005890;28;20172;-55
2022/01/21 10:09:45;;;;;;;17.17;3.70;;;;;;;;;;4998962;28;20033;-56
2022/01/21 10:12:10;;;;;;;8.73;3.40;;;;;;;;;;4988910;28;20053;-56
2022/01/21 10:14:38;;;;;;;15.82;3.15;;;;;;;;;;4984932;28;20552;-56
2022/01/21 10:17:05;;;;;;;9.60;3.55;;;;;;;;;;4983535;28;20050;-55
2022/01/21 10:19:33;;;;;;;5.82;2.40;;;;;;;;;;4981350;28;20089;-54
2022/01/21 10:22:10;;;;;;;13.45;3.00;;;;;;;;;;4981794;28;20054;-54
2022/01/21 10:24:58;;;;;;;9.25;2.90;;;;;;;;;;4981594;28;20394;-56
2022/01/21 10:27:29;;;;;;;16.95;3.10;;;;;;;;;;4978998;28;20026;-56
2022/01/21 10:29:56;;;;;;;11.77;2.40;;;;;;;;;;4981653;28;20659;-55
2022/01/21 10:32:40;;;;;;;9.90;2.75;;;;;;;;;;4984818;28;20030;-55
2022/01/21 10:35:21;;;;;;;8.30;2.50;;;;;;;;;;4977867;28;20022;-55
2022/01/21 10:37:47;;;;;;;9.13;3.40;;;;;;;;;;4978968;28;20026;-55
2022/01/21 10:40:15;;;;;;;6.68;2.80;;;;;;;;;;4980527;28;20287;-54
2022/01/21 10:42:40;;;;;;;9.50;2.95;;;;;;;;;;4982558;28;20511;-53
2022/01/21 10:45:08;;;;;;;22.80;3.65;;;;;;;;;;4979876;28;20034;-54
2022/01/21 10:47:40;;;;;;;12.90;3.10;;;;;;;;;;4982602;28;20167;-53
2022/01/21 10:50:15;;;;;;;9.02;2.92;;;;;;;;;;4982147;28;20132;-55
2022/01/21 10:52:53;;;;;;;11.07;3.28;;;;;;;;;;4983339;28;20030;-50
2022/01/21 10:55:27;;;;;;;17.70;4.70;;;;;;;;;;4979913;28;20034;-51
2022/01/21 10:58:13;;;;;;;17.13;3.90;;;;;;;;;;4984095;28;20414;-51
2022/01/21 11:00:57;;;;;;;21.63;3.53;;;;;;;;;;4977825;28;20066;-52
2022/01/21 11:03:22;;;;;;;17.35;3.70;;;;;;;;;;4979434;28;20030;-50
2022/01/21 11:05:50;;;;;;;10.63;4.05;;;;;;;;;;4976008;28;20031;-48
2022/01/21 11:08:17;;;;;;;12.15;3.35;;;;;;;;;;4981745;28;20141;-52
2022/01/21 11:10:45;;;;;;;15.43;3.25;;;;;;;;;;4981567;28;20042;-50
2022/01/21 11:13:11;;;;;;;13.38;3.17;;;;;;;;;;4998805;28;20474;-51
2022/01/21 11:15:46;;;;;;;10.80;2.03;;;;;;;;;;4996379;28;20129;-51
2022/01/21 11:18:15;;;;;;;10.25;2.58;;;;;;;;;;5002003;28;20026;-52
2022/01/21 11:20:43;;;;;;;5.68;2.05;;;;;;;;;;5001321;28;20496;-53
2022/01/21 11:23:09;;;;;;;7.75;1.38;;;;;;;;;;4999887;28;20018;-52
2022/01/21 11:25:48;;;;;;;13.43;2.85;;;;;;;;;;4994852;28;20038;-54
2022/01/21 11:28:19;;;;;;;6.05;2.42;;;;;;;;;;4998911;28;20038;-54
2022/01/21 11:30:46;;;;;;;7.30;2.58;;;;;;;;;;5001414;28;20045;-54
2022/01/21 11:33:11;;;;;;;10.98;3.20;;;;;;;;;;5004260;28;20037;-55
2022/01/21 11:35:37;;;;;;;13.45;4.13;;;;;;;;;;4997656;28;20061;-53
2022/01/21 11:38:10;;;;;;;5.07;2.55;;;;;;;;;;5004059;28;20393;-54
2022/01/21 11:40:37;;;;;;;14.27;3.03;;;;;;;;;;4998476;28;20026;-55
2022/01/21 11:43:05;;;;;;;14.48;3.53;;;;;;;;;;5000686;28;20096;-54
2022/01/21 11:45:43;;;;;;;25.10;3.95;;;;;;;;;;5001864;28;20533;-54
2022/01/21 11:50:51;;;;;;;9.73;3.50;;;;;;;;;;4997955;28;20041;-56
2022/01/21 11:53:54;;;;;;;10.70;3.38;;;;;;;;;;4999764;28;20100;-55
2022/01/21 11:56:47;;;;;;;14.48;3.95;;;;;;;;;;4999234;28;20026;-55
2022/01/21 11:59:38;;;;;;;9.45;2.55;;;;;;;;;;4997060;28;20026;-55
2022/01/21 12:02:21;;;;;;;12.32;3.10;;;;;;;;;;4998376;28;20032;-55
2022/01/21 12:04:49;;;;;;;9.73;3.45;;;;;;;;;;4998771;28;20030;-55
2022/01/21 12:07:37;;;;;;;13.27;2.65;;;;;;;;;;4995822;28;20034;-54
2022/01/21 12:10:14;;;;;;;11.15;1.75;;;;;;;;;;4999022;28;20512;-56
2022/01/21 12:12:46;;;;;;;13.02;2.38;;;;;;;;;;5000053;28;20046;-55
2022/01/21 12:15:46;;;;;;;14.40;2.95;;;;;;;;;;4979136;28;20045;-55
2022/01/21 12:19:08;;;;;;;3.70;1.48;;;;;;;;;;4999010;28;20038;-56
2022/01/21 12:21:40;;;;;;;10.57;2.10;;;;;;;;;;4998032;28;20480;-56
2022/01/21 12:24:08;;;;;;;11.93;2.35;;;;;;;;;;4997792;28;20036;-56
2022/01/21 12:26:34;;;;;;;8.80;2.70;;;;;;;;;;4999947;28;20041;-57
2022/01/21 12:29:00;;;;;;;11.30;3.17;;;;;;;;;;4979677;28;20045;-54
2022/01/21 12:31:52;;;;;;;7.35;2.40;;;;;;;;;;4999120;28;20464;-57
2022/01/21 12:34:18;;;;;;;21.55;2.83;;;;;;;;;;4997277;28;20034;-53
2022/01/21 12:36:55;;;;;;;10.02;2.63;;;;;;;;;;4980155;28;20103;-56
2022/01/21 12:39:48;;;;;;;22.45;4.47;;;;;;;;;;4999234;28;20029;-56
2022/01/21 12:42:20;;;;;;;9.77;3.55;;;;;;;;;;4996345;28;20052;-57
2022/01/21 12:44:52;;;;;;;10.65;4.18;;;;;;;;;;4996346;28;20017;-56
2022/01/21 12:47:30;;;;;;;11.52;4.82;;;;;;;;;;4993827;28;20104;-54
2022/01/21 12:49:57;;;;;;;15.48;5.60;;;;;;;;;;4997800;28;20404;-55
2022/01/21 12:52:44;;;;;;;15.05;5.43;;;;;;;;;;4993002;28;20041;-55
2022/01/21 12:58:03;;;;;;;18.50;5.50;;;;;;;;;;4993534;28;20118;-55
2022/01/21 13:00:28;;;;;;;12.48;5.25;;;;;;;;;;4974474;28;20037;-53
2022/01/21 13:02:58;;;;;;;17.10;5.13;;;;;;;;;;4993921;28;20029;-54
2022/01/21 13:05:32;;;;;;;17.05;5.07;;;;;;;;;;4999701;28;20021;-53
2022/01/21 13:08:26;;;;;;;11.50;3.28;;;;;;;;;;5002144;28;20046;-55
2022/01/21 13:10:51;;;;;;;12.88;3.92;;;;;;;;;;4995857;28;20104;-54
2022/01/21 13:13:47;;;;;;;12.00;3.60;;;;;;;;;;5002997;28;20423;-55
2022/01/21 13:16:22;;;;;;;12.05;3.55;;;;;;;;;;4999613;28;20033;-55
2022/01/21 13:18:48;;;;;;;9.43;2.90;;;;;;;;;;5000983;28;20041;-55
2022/01/21 13:21:13;;;;;;;15.73;4.25;;;;;;;;;;4985580;28;20033;-54
2022/01/21 13:23:56;;;;;;;12.18;2.75;;;;;;;;;;5001929;28;20105;-55
2022/01/21 13:26:37;;;;;;;14.23;2.30;;;;;;;;;;5001690;28;20032;-55
2022/01/21 13:29:07;;;;;;;9.65;2.80;;;;;;;;;;5003620;28;20424;-55
2022/01/21 13:31:55;;;;;;;12.32;1.67;;;;;;;;;;5004016;28;20029;-55
2022/01/21 13:34:26;;;;;;;5.35;1.55;;;;;;;;;;5004574;28;20038;-54
2022/01/21 13:36:55;;;;;;;10.38;2.05;;;;;;;;;;4985387;28;20397;-54
2022/01/21 13:39:41;;;;;;;6.20;1.95;;;;;;;;;;5002901;28;20032;-54
2022/01/21 13:42:10;;;;;;;7.60;1.90;;;;;;;;;;4981229;28;20785;-54
2022/01/21 13:44:41;;;;;;;12.25;2.38;;;;;;;;;;4999479;28;20115;-57
2022/01/21 13:47:21;;;;;;;4.55;1.45;;;;;;;;;;5002492;28;20025;-57
2022/01/21 13:49:47;;;;;;;10.40;1.90;;;;;;;;;;4999059;28;20432;-57
2022/01/21 13:52:13;;;;;;;7.85;2.53;;;;;;;;;;5004065;28;20092;-56
2022/01/21 13:54:45;;;;;;;8.93;1.73;;;;;;;;;;5002867;28;20030;-56
2022/01/21 13:57:10;;;;;;;6.22;2.13;;;;;;;;;;4999619;28;20405;-57
2022/01/21 13:59:45;;;;;;;6.28;2.03;;;;;;;;;;5003504;28;20042;-57
2022/01/21 14:02:13;;;;;;;8.75;2.30;;;;;;;;;;5001888;28;20030;-56
2022/01/21 14:04:40;;;;;;;9.90;2.00;;;;;;;;;;5004620;28;20184;-57
2022/01/21 14:07:28;;;;;;;15.23;2.60;;;;;;;;;;5002806;28;20041;-57
2022/01/21 14:09:54;;;;;;;12.38;3.22;;;;;;;;;;4999705;28;20100;-57
2022/01/21 14:12:20;;;;;;;9.32;2.15;;;;;;;;;;5000458;28;20046;-57
2022/01/21 14:14:51;;;;;;;7.03;1.50;;;;;;;;;;5003665;28;20030;-57
2022/01/21 14:17:24;;;;;;;13.07;3.38;;;;;;;;;;5000970;28;20092;-56
2022/01/21 14:19:51;;;;;;;8.95;2.65;;;;;;;;;;5003320;28;20089;-57
2022/01/21 14:22:19;;;;;;;12.07;3.40;;;;;;;;;;4997641;28;20029;-57
2022/01/21 14:24:48;;;;;;;11.05;3.10;;;;;;;;;;5000373;28;20129;-56
2022/01/21 14:27:18;;;;;;;12.30;2.75;;;;;;;;;;5001843;28;20034;-56
2022/01/21 14:29:52;;;;;;;14.18;2.92;;;;;;;;;;4996786;28;20022;-57
2022/01/21 14:32:24;;;;;;;7.05;2.03;;;;;;;;;;4998055;28;20057;-57
2022/01/21 14:34:49;;;;;;;19.40;6.10;;;;;;;;;;5000913;28;20051;-56
2022/01/21 14:37:20;;;;;;;9.07;3.28;;;;;;;;;;5002063;28;20623;-56
2022/01/21 14:39:48;;;;;;;16.13;2.92;;;;;;;;;;4999997;28;20396;-56
2022/01/21 14:42:27;;;;;;;11.00;3.42;;;;;;;;;;5001017;28;20148;-56
2022/01/21 14:44:59;;;;;;;10.43;3.35;;;;;;;;;;4982129;28;20651;-57
2022/01/21 14:47:31;;;;;;;14.40;3.38;;;;;;;;;;4996858;28;20026;-57
2022/01/21 14:50:02;;;;;;;7.32;2.65;;;;;;;;;;4998571;28;20054;-56
2022/01/21 14:52:43;;;;;;;9.98;3.05;;;;;;;;;;4993793;28;20022;-56
2022/01/21 14:55:14;;;;;;;15.70;3.45;;;;;;;;;;4997877;28;20066;-56
2022/01/21 14:57:49;;;;;;;4.00;1.40;;;;;;;;;;4996764;28;20033;-57
2022/01/21 15:00:24;;;;;;;10.32;2.53;;;;;;;;;;4995272;28;20541;-56
2022/01/21 15:03:26;;;;;;;15.50;2.60;;;;;;;;;;4996202;28;20070;-57
2022/01/21 15:05:57;;;;;;;10.40;2.40;;;;;;;;;;4996044;28;20041;-57
2022/01/21 15:08:42;;;;;;;9.48;2.72;;;;;;;;;;4997059;28;20275;-57
2022/01/21 15:16:29;;;;;;;7.50;2.33;;;;;;;;;;4998699;28;20044;-56
2022/01/21 15:18:56;;;;;;;11.15;2.47;;;;;;;;;;5002562;28;20029;-57
2022/01/21 15:21:26;;;;;;;8.68;2.38;;;;;;;;;;5004459;28;20124;-57
2022/01/21 15:23:53;;;;;;;8.05;2.72;;;;;;;;;;5002017;28;20516;-56
2022/01/21 15:26:20;;;;;;;12.25;2.70;;;;;;;;;;5001117;28;20467;-57
2022/01/21 15:28:48;;;;;;;8.73;2.75;;;;;;;;;;5001481;28;20117;-57
2022/01/21 15:31:14;;;;;;;13.75;3.00;;;;;;;;;;4996766;28;20096;-56
2022/01/21 15:33:39;;;;;;;14.73;3.42;;;;;;;;;;5003329;28;20030;-55
2022/01/21 15:36:05;;;;;;;14.75;3.67;;;;;;;;;;5004270;28;20034;-54
2022/01/21 15:38:31;;;;;;;8.57;3.17;;;;;;;;;;5007247;28;20032;-56
2022/01/21 15:40:57;;;;;;;7.68;3.22;;;;;;;;;;5004250;28;20493;-57
2022/01/21 15:43:22;;;;;;;11.27;3.10;;;;;;;;;;4998411;28;20056;-55